sensor_id;sensor_type;location;lat;lon;timestamp;P1;durP1;ratioP1;P2;durP2;ratioP2
16813;SDS011;8524;57.650;11.926;2023-03-01T00:01:33;4.53;;;3.80;;
16813;SDS011;8524;57.650;11.926;2023-03-01T00:04:00;3.83;;;3.43;;
16813;SDS011;8524;57.650;11.926;2023-03-01T00:06:27;3.57;;;3.23;;
16813;SDS011;8524;57.650;11.926;2023-03-01T00:08:54;4.80;;;3.67;;
16813;SDS011;8524;57.650;11.926;2023-03-01T00:11:24;4.47;;;3.57;;
16813;SDS011;8524;57.650;11.926;2023-03-01T00:13:53;4.40;;;3.40;;
16813;SDS011;8524;57.650;11.926;2023-03-01T00:16:23;3.70;;;3.40;;
16813;SDS011;8524;57.650;11.926;2023-03-01T00:18:54;3.57;;;3.27;;
16813;SDS011;8524;57.650;11.926;2023-03-01T00:21:22;5.67;;;4.30;;
16813;SDS011;8524;57.650;11.926;2023-03-01T00:23:50;4.40;;;3.90;;
16813;SDS011;8524;57.650;11.926;2023-03-01T00:26:18;4.90;;;3.93;;
16813;SDS011;8524;57.650;11.926;2023-03-01T00:28:46;4.83;;;3.73;;
16813;SDS011;8524;57.650;11.926;2023-03-01T00:31:14;4.43;;;3.40;;
16813;SDS011;8524;57.650;11.926;2023-03-01T00:33:44;4.00;;;3.60;;
16813;SDS011;8524;57.650;11.926;2023-03-01T00:36:12;4.30;;;3.43;;
16813;SDS011;8524;57.650;11.926;2023-03-01T00:38:41;3.60;;;3.27;;
16813;SDS011;8524;57.650;11.926;2023-03-01T00:41:11;3.77;;;3.30;;
16813;SDS011;8524;57.650;11.926;2023-03-01T00:43:40;4.83;;;3.60;;
16813;SDS011;8524;57.650;11.926;2023-03-01T00:46:08;4.50;;;3.30;;
16813;SDS011;8524;57.650;11.926;2023-03-01T00:48:37;4.47;;;3.77;;
16813;SDS011;8524;57.650;11.926;2023-03-01T00:51:06;4.57;;;3.70;;
16813;SDS011;8524;57.650;11.926;2023-03-01T00:53:35;4.57;;;3.30;;
16813;SDS011;8524;57.650;11.926;2023-03-01T00:56:02;4.90;;;3.57;;
16813;SDS011;8524;57.650;11.926;2023-03-01T00:58:31;4.53;;;3.50;;
16813;SDS011;8524;57.650;11.926;2023-03-01T01:00:58;4.83;;;3.20;;
16813;SDS011;8524;57.650;11.926;2023-03-01T01:03:25;5.00;;;3.67;;
16813;SDS011;8524;57.650;11.926;2023-03-01T01:05:53;3.50;;;2.90;;
16813;SDS011;8524;57.650;11.926;2023-03-01T01:08:21;3.97;;;3.07;;
16813;SDS011;8524;57.650;11.926;2023-03-01T01:10:48;4.10;;;3.27;;
16813;SDS011;8524;57.650;11.926;2023-03-01T01:13:15;3.97;;;3.60;;
16813;SDS011;8524;57.650;11.926;2023-03-01T01:15:42;5.07;;;3.60;;
16813;SDS011;8524;57.650;11.926;2023-03-01T01:18:09;3.50;;;3.20;;
16813;SDS011;8524;57.650;11.926;2023-03-01T01:20:36;4.07;;;3.67;;
16813;SDS011;8524;57.650;11.926;2023-03-01T01:23:05;3.87;;;2.97;;
16813;SDS011;8524;57.650;11.926;2023-03-01T01:25:35;3.57;;;3.03;;
16813;SDS011;8524;57.650;11.926;2023-03-01T01:28:02;3.87;;;2.87;;
16813;SDS011;8524;57.650;11.926;2023-03-01T01:30:29;5.60;;;3.60;;
16813;SDS011;8524;57.650;11.926;2023-03-01T01:32:57;3.40;;;3.00;;
16813;SDS011;8524;57.650;11.926;2023-03-01T01:35:24;3.40;;;2.90;;
16813;SDS011;8524;57.650;11.926;2023-03-01T01:37:51;4.82;;;3.72;;
16813;SDS011;8524;57.650;11.926;2023-03-01T01:40:18;3.20;;;2.90;;
16813;SDS011;8524;57.650;11.926;2023-03-01T01:42:47;3.53;;;2.97;;
16813;SDS011;8524;57.650;11.926;2023-03-01T01:45:31;6.50;;;3.47;;
16813;SDS011;8524;57.650;11.926;2023-03-01T01:48:00;5.57;;;3.50;;
16813;SDS011;8524;57.650;11.926;2023-03-01T01:50:31;5.40;;;3.47;;
16813;SDS011;8524;57.650;11.926;2023-03-01T01:53:03;4.43;;;3.13;;
16813;SDS011;8524;57.650;11.926;2023-03-01T01:55:33;3.40;;;3.10;;
16813;SDS011;8524;57.650;11.926;2023-03-01T01:58:05;4.00;;;3.20;;
16813;SDS011;8524;57.650;11.926;2023-03-01T02:00:35;3.87;;;3.47;;
16813;SDS011;8524;57.650;11.926;2023-03-01T02:03:07;4.17;;;3.40;;
16813;SDS011;8524;57.650;11.926;2023-03-01T02:05:38;4.77;;;3.60;;
16813;SDS011;8524;57.650;11.926;2023-03-01T02:08:11;3.33;;;3.03;;
16813;SDS011;8524;57.650;11.926;2023-03-01T02:10:40;4.67;;;3.33;;
16813;SDS011;8524;57.650;11.926;2023-03-01T02:13:09;3.70;;;3.00;;
16813;SDS011;8524;57.650;11.926;2023-03-01T02:15:38;5.37;;;3.27;;
16813;SDS011;8524;57.650;11.926;2023-03-01T02:18:09;4.90;;;3.53;;
16813;SDS011;8524;57.650;11.926;2023-03-01T02:20:40;4.53;;;3.33;;
16813;SDS011;8524;57.650;11.926;2023-03-01T02:23:17;4.57;;;3.47;;
16813;SDS011;8524;57.650;11.926;2023-03-01T02:25:47;6.60;;;3.87;;
16813;SDS011;8524;57.650;11.926;2023-03-01T02:28:27;6.27;;;3.63;;
16813;SDS011;8524;57.650;11.926;2023-03-01T02:30:57;4.30;;;2.97;;
16813;SDS011;8524;57.650;11.926;2023-03-01T02:33:41;6.57;;;3.40;;
16813;SDS011;8524;57.650;11.926;2023-03-01T02:36:10;5.33;;;3.40;;
16813;SDS011;8524;57.650;11.926;2023-03-01T02:38:41;4.53;;;3.03;;
16813;SDS011;8524;57.650;11.926;2023-03-01T02:41:08;4.73;;;3.13;;
16813;SDS011;8524;57.650;11.926;2023-03-01T02:43:39;5.10;;;3.40;;
16813;SDS011;8524;57.650;11.926;2023-03-01T02:46:07;4.33;;;3.70;;
16813;SDS011;8524;57.650;11.926;2023-03-01T02:48:40;4.83;;;3.40;;
16813;SDS011;8524;57.650;11.926;2023-03-01T02:51:10;5.20;;;3.53;;
16813;SDS011;8524;57.650;11.926;2023-03-01T02:53:47;4.70;;;3.20;;
16813;SDS011;8524;57.650;11.926;2023-03-01T02:56:21;5.57;;;3.73;;
16813;SDS011;8524;57.650;11.926;2023-03-01T02:58:49;5.50;;;3.40;;
16813;SDS011;8524;57.650;11.926;2023-03-01T03:01:18;4.17;;;3.53;;
16813;SDS011;8524;57.650;11.926;2023-03-01T03:03:45;5.07;;;3.33;;
16813;SDS011;8524;57.650;11.926;2023-03-01T03:06:12;3.60;;;3.10;;
16813;SDS011;8524;57.650;11.926;2023-03-01T03:08:40;4.43;;;3.43;;
16813;SDS011;8524;57.650;11.926;2023-03-01T03:11:07;4.37;;;3.07;;
16813;SDS011;8524;57.650;11.926;2023-03-01T03:13:34;5.53;;;3.07;;
16813;SDS011;8524;57.650;11.926;2023-03-01T03:16:02;3.63;;;3.27;;
16813;SDS011;8524;57.650;11.926;2023-03-01T03:18:30;3.53;;;2.80;;
16813;SDS011;8524;57.650;11.926;2023-03-01T03:20:57;5.40;;;3.20;;
16813;SDS011;8524;57.650;11.926;2023-03-01T03:23:24;4.03;;;2.97;;
16813;SDS011;8524;57.650;11.926;2023-03-01T03:25:51;4.40;;;3.40;;
16813;SDS011;8524;57.650;11.926;2023-03-01T03:28:18;3.87;;;3.00;;
16813;SDS011;8524;57.650;11.926;2023-03-01T03:30:45;4.67;;;3.00;;
16813;SDS011;8524;57.650;11.926;2023-03-01T03:33:14;3.93;;;2.87;;
16813;SDS011;8524;57.650;11.926;2023-03-01T03:35:42;3.40;;;2.83;;
16813;SDS011;8524;57.650;11.926;2023-03-01T03:38:12;3.40;;;2.80;;
16813;SDS011;8524;57.650;11.926;2023-03-01T03:40:43;4.17;;;3.20;;
16813;SDS011;8524;57.650;11.926;2023-03-01T03:43:12;3.53;;;2.88;;
16813;SDS011;8524;57.650;11.926;2023-03-01T03:45:40;4.17;;;3.30;;
16813;SDS011;8524;57.650;11.926;2023-03-01T03:48:08;4.53;;;3.07;;
16813;SDS011;8524;57.650;11.926;2023-03-01T03:50:37;3.67;;;3.27;;
16813;SDS011;8524;57.650;11.926;2023-03-01T03:53:06;3.63;;;3.27;;
16813;SDS011;8524;57.650;11.926;2023-03-01T03:55:34;3.77;;;3.00;;
16813;SDS011;8524;57.650;11.926;2023-03-01T03:58:04;3.77;;;3.13;;
16813;SDS011;8524;57.650;11.926;2023-03-01T04:00:33;3.67;;;3.00;;
16813;SDS011;8524;57.650;11.926;2023-03-01T04:03:01;4.03;;;3.00;;
16813;SDS011;8524;57.650;11.926;2023-03-01T04:05:29;4.67;;;2.90;;
16813;SDS011;8524;57.650;11.926;2023-03-01T04:07:58;4.33;;;2.93;;
16813;SDS011;8524;57.650;11.926;2023-03-01T04:10:32;3.90;;;2.80;;
16813;SDS011;8524;57.650;11.926;2023-03-01T04:13:01;3.73;;;3.10;;
16813;SDS011;8524;57.650;11.926;2023-03-01T04:15:28;4.47;;;3.10;;
16813;SDS011;8524;57.650;11.926;2023-03-01T04:17:57;4.27;;;2.90;;
16813;SDS011;8524;57.650;11.926;2023-03-01T04:20:25;3.40;;;3.10;;
16813;SDS011;8524;57.650;11.926;2023-03-01T04:22:57;3.73;;;3.07;;
16813;SDS011;8524;57.650;11.926;2023-03-01T04:25:36;5.40;;;3.20;;
16813;SDS011;8524;57.650;11.926;2023-03-01T04:28:04;4.00;;;3.33;;
16813;SDS011;8524;57.650;11.926;2023-03-01T04:30:31;3.27;;;2.97;;
16813;SDS011;8524;57.650;11.926;2023-03-01T04:33:01;3.57;;;2.80;;
16813;SDS011;8524;57.650;11.926;2023-03-01T04:35:29;3.27;;;2.97;;
16813;SDS011;8524;57.650;11.926;2023-03-01T04:37:56;4.33;;;3.37;;
16813;SDS011;8524;57.650;11.926;2023-03-01T04:40:25;4.50;;;3.00;;
16813;SDS011;8524;57.650;11.926;2023-03-01T04:42:52;4.13;;;3.27;;
16813;SDS011;8524;57.650;11.926;2023-03-01T04:45:20;3.67;;;3.10;;
16813;SDS011;8524;57.650;11.926;2023-03-01T04:47:47;4.37;;;3.23;;
16813;SDS011;8524;57.650;11.926;2023-03-01T04:50:17;3.73;;;3.13;;
16813;SDS011;8524;57.650;11.926;2023-03-01T04:52:45;3.70;;;2.90;;
16813;SDS011;8524;57.650;11.926;2023-03-01T04:55:14;4.03;;;3.47;;
16813;SDS011;8524;57.650;11.926;2023-03-01T04:57:42;4.57;;;3.20;;
16813;SDS011;8524;57.650;11.926;2023-03-01T05:00:10;4.57;;;3.97;;
16813;SDS011;8524;57.650;11.926;2023-03-01T05:02:49;3.60;;;3.30;;
16813;SDS011;8524;57.650;11.926;2023-03-01T05:05:23;6.10;;;3.50;;
16813;SDS011;8524;57.650;11.926;2023-03-01T05:07:52;3.50;;;3.20;;
16813;SDS011;8524;57.650;11.926;2023-03-01T05:10:22;4.80;;;3.73;;
16813;SDS011;8524;57.650;11.926;2023-03-01T05:12:49;4.13;;;3.00;;
16813;SDS011;8524;57.650;11.926;2023-03-01T05:15:18;3.97;;;3.30;;
16813;SDS011;8524;57.650;11.926;2023-03-01T05:17:46;4.27;;;3.60;;
16813;SDS011;8524;57.650;11.926;2023-03-01T05:20:14;5.17;;;3.13;;
16813;SDS011;8524;57.650;11.926;2023-03-01T05:22:41;4.18;;;3.72;;
16813;SDS011;8524;57.650;11.926;2023-03-01T05:25:09;4.87;;;3.50;;
16813;SDS011;8524;57.650;11.926;2023-03-01T05:27:37;5.70;;;3.03;;
16813;SDS011;8524;57.650;11.926;2023-03-01T05:30:05;3.90;;;3.10;;
16813;SDS011;8524;57.650;11.926;2023-03-01T05:32:40;3.90;;;3.50;;
16813;SDS011;8524;57.650;11.926;2023-03-01T05:35:09;6.23;;;3.40;;
16813;SDS011;8524;57.650;11.926;2023-03-01T05:37:40;9.30;;;5.87;;
16813;SDS011;8524;57.650;11.926;2023-03-01T05:40:09;6.10;;;4.93;;
16813;SDS011;8524;57.650;11.926;2023-03-01T05:42:45;5.93;;;4.10;;
16813;SDS011;8524;57.650;11.926;2023-03-01T05:45:13;4.93;;;3.67;;
16813;SDS011;8524;57.650;11.926;2023-03-01T05:47:42;3.93;;;3.50;;
16813;SDS011;8524;57.650;11.926;2023-03-01T05:50:11;4.30;;;3.60;;
16813;SDS011;8524;57.650;11.926;2023-03-01T05:52:39;4.70;;;3.60;;
16813;SDS011;8524;57.650;11.926;2023-03-01T05:55:06;3.77;;;3.37;;
16813;SDS011;8524;57.650;11.926;2023-03-01T05:57:34;4.83;;;3.40;;
16813;SDS011;8524;57.650;11.926;2023-03-01T06:00:02;4.73;;;3.20;;
16813;SDS011;8524;57.650;11.926;2023-03-01T06:02:31;6.23;;;3.33;;
16813;SDS011;8524;57.650;11.926;2023-03-01T06:04:58;3.43;;;2.77;;
16813;SDS011;8524;57.650;11.926;2023-03-01T06:07:25;3.47;;;3.10;;
16813;SDS011;8524;57.650;11.926;2023-03-01T06:09:53;4.30;;;2.97;;
16813;SDS011;8524;57.650;11.926;2023-03-01T06:12:21;4.63;;;2.80;;
16813;SDS011;8524;57.650;11.926;2023-03-01T06:14:48;4.77;;;3.23;;
16813;SDS011;8524;57.650;11.926;2023-03-01T06:17:17;6.07;;;4.60;;
16813;SDS011;8524;57.650;11.926;2023-03-01T06:19:44;6.80;;;4.77;;
16813;SDS011;8524;57.650;11.926;2023-03-01T06:22:14;6.83;;;4.60;;
16813;SDS011;8524;57.650;11.926;2023-03-01T06:24:41;5.83;;;4.43;;
16813;SDS011;8524;57.650;11.926;2023-03-01T06:27:08;4.67;;;4.13;;
16813;SDS011;8524;57.650;11.926;2023-03-01T06:29:35;3.77;;;3.37;;
16813;SDS011;8524;57.650;11.926;2023-03-01T06:32:03;5.83;;;3.70;;
16813;SDS011;8524;57.650;11.926;2023-03-01T06:34:31;4.40;;;3.90;;
16813;SDS011;8524;57.650;11.926;2023-03-01T06:36:58;4.33;;;3.27;;
16813;SDS011;8524;57.650;11.926;2023-03-01T06:39:27;3.57;;;3.27;;
16813;SDS011;8524;57.650;11.926;2023-03-01T06:41:54;4.50;;;3.80;;
16813;SDS011;8524;57.650;11.926;2023-03-01T06:44:21;6.03;;;3.37;;
16813;SDS011;8524;57.650;11.926;2023-03-01T06:46:49;5.17;;;2.80;;
16813;SDS011;8524;57.650;11.926;2023-03-01T06:49:19;4.27;;;3.27;;
16813;SDS011;8524;57.650;11.926;2023-03-01T06:51:48;5.33;;;3.67;;
16813;SDS011;8524;57.650;11.926;2023-03-01T06:54:17;5.73;;;3.73;;
16813;SDS011;8524;57.650;11.926;2023-03-01T06:56:47;5.07;;;3.90;;
16813;SDS011;8524;57.650;11.926;2023-03-01T06:59:14;5.83;;;3.40;;
16813;SDS011;8524;57.650;11.926;2023-03-01T07:01:41;4.33;;;3.53;;
16813;SDS011;8524;57.650;11.926;2023-03-01T07:06:51;4.03;;;3.30;;
16813;SDS011;8524;57.650;11.926;2023-03-01T07:09:20;8.67;;;6.10;;
16813;SDS011;8524;57.650;11.926;2023-03-01T07:11:48;6.93;;;4.70;;
16813;SDS011;8524;57.650;11.926;2023-03-01T07:14:16;5.03;;;4.43;;
16813;SDS011;8524;57.650;11.926;2023-03-01T07:16:44;6.33;;;4.50;;
16813;SDS011;8524;57.650;11.926;2023-03-01T07:19:12;5.90;;;4.07;;
16813;SDS011;8524;57.650;11.926;2023-03-01T07:21:39;6.07;;;4.13;;
16813;SDS011;8524;57.650;11.926;2023-03-01T07:24:08;5.83;;;4.33;;
16813;SDS011;8524;57.650;11.926;2023-03-01T07:26:36;5.33;;;3.33;;
16813;SDS011;8524;57.650;11.926;2023-03-01T07:29:07;5.50;;;3.70;;
16813;SDS011;8524;57.650;11.926;2023-03-01T07:31:39;5.77;;;3.87;;
16813;SDS011;8524;57.650;11.926;2023-03-01T07:34:06;4.83;;;3.23;;
16813;SDS011;8524;57.650;11.926;2023-03-01T07:36:34;6.40;;;3.40;;
16813;SDS011;8524;57.650;11.926;2023-03-01T07:39:02;4.07;;;2.67;;
16813;SDS011;8524;57.650;11.926;2023-03-01T07:41:31;3.97;;;2.50;;
16813;SDS011;8524;57.650;11.926;2023-03-01T07:43:58;5.17;;;3.50;;
16813;SDS011;8524;57.650;11.926;2023-03-01T07:46:25;5.00;;;2.97;;
16813;SDS011;8524;57.650;11.926;2023-03-01T07:48:52;3.57;;;2.67;;
16813;SDS011;8524;57.650;11.926;2023-03-01T07:51:19;4.70;;;2.83;;
16813;SDS011;8524;57.650;11.926;2023-03-01T07:53:47;3.97;;;2.77;;
16813;SDS011;8524;57.650;11.926;2023-03-01T07:56:15;3.53;;;2.60;;
16813;SDS011;8524;57.650;11.926;2023-03-01T07:58:45;3.67;;;2.83;;
16813;SDS011;8524;57.650;11.926;2023-03-01T08:01:13;3.00;;;1.80;;
16813;SDS011;8524;57.650;11.926;2023-03-01T08:03:41;3.73;;;1.90;;
16813;SDS011;8524;57.650;11.926;2023-03-01T08:06:10;1.73;;;1.63;;
16813;SDS011;8524;57.650;11.926;2023-03-01T08:08:38;1.20;;;1.10;;
16813;SDS011;8524;57.650;11.926;2023-03-01T08:11:06;1.57;;;1.17;;
16813;SDS011;8524;57.650;11.926;2023-03-01T08:13:36;1.00;;;0.90;;
16813;SDS011;8524;57.650;11.926;2023-03-01T08:16:06;2.00;;;0.93;;
16813;SDS011;8524;57.650;11.926;2023-03-01T08:18:42;1.37;;;1.10;;
16813;SDS011;8524;57.650;11.926;2023-03-01T08:21:18;1.53;;;1.20;;
16813;SDS011;8524;57.650;11.926;2023-03-01T08:23:48;2.13;;;1.13;;
16813;SDS011;8524;57.650;11.926;2023-03-01T08:26:16;1.53;;;1.00;;
16813;SDS011;8524;57.650;11.926;2023-03-01T08:28:45;2.93;;;1.27;;
16813;SDS011;8524;57.650;11.926;2023-03-01T08:31:15;1.50;;;0.97;;
16813;SDS011;8524;57.650;11.926;2023-03-01T08:33:44;1.37;;;1.00;;
16813;SDS011;8524;57.650;11.926;2023-03-01T08:36:15;1.30;;;1.03;;
16813;SDS011;8524;57.650;11.926;2023-03-01T08:38:47;1.97;;;1.30;;
16813;SDS011;8524;57.650;11.926;2023-03-01T08:41:18;1.40;;;1.10;;
16813;SDS011;8524;57.650;11.926;2023-03-01T08:43:55;1.10;;;1.00;;
16813;SDS011;8524;57.650;11.926;2023-03-01T08:46:26;1.30;;;0.97;;
16813;SDS011;8524;57.650;11.926;2023-03-01T08:48:54;1.53;;;1.00;;
16813;SDS011;8524;57.650;11.926;2023-03-01T08:51:30;1.13;;;1.10;;
16813;SDS011;8524;57.650;11.926;2023-03-01T08:54:01;1.13;;;1.00;;
16813;SDS011;8524;57.650;11.926;2023-03-01T08:56:35;1.63;;;1.00;;
16813;SDS011;8524;57.650;11.926;2023-03-01T08:59:03;1.00;;;0.90;;
16813;SDS011;8524;57.650;11.926;2023-03-01T09:01:36;1.27;;;0.90;;
16813;SDS011;8524;57.650;11.926;2023-03-01T09:04:20;0.70;;;0.60;;
16813;SDS011;8524;57.650;11.926;2023-03-01T09:06:48;1.00;;;0.90;;
16813;SDS011;8524;57.650;11.926;2023-03-01T09:09:16;1.97;;;0.93;;
16813;SDS011;8524;57.650;11.926;2023-03-01T09:11:45;0.87;;;0.80;;
16813;SDS011;8524;57.650;11.926;2023-03-01T09:14:18;0.97;;;0.90;;
16813;SDS011;8524;57.650;11.926;2023-03-01T09:16:47;1.23;;;1.10;;
16813;SDS011;8524;57.650;11.926;2023-03-01T09:19:14;0.90;;;0.87;;
16813;SDS011;8524;57.650;11.926;2023-03-01T09:21:43;0.70;;;0.70;;
16813;SDS011;8524;57.650;11.926;2023-03-01T09:24:17;1.40;;;1.00;;
16813;SDS011;8524;57.650;11.926;2023-03-01T09:26:54;1.20;;;0.97;;
16813;SDS011;8524;57.650;11.926;2023-03-01T09:29:24;1.07;;;0.80;;
16813;SDS011;8524;57.650;11.926;2023-03-01T09:31:55;1.70;;;1.10;;
16813;SDS011;8524;57.650;11.926;2023-03-01T09:34:25;1.10;;;1.00;;
16813;SDS011;8524;57.650;11.926;2023-03-01T09:36:53;1.70;;;1.30;;
16813;SDS011;8524;57.650;11.926;2023-03-01T09:39:20;1.23;;;1.10;;
16813;SDS011;8524;57.650;11.926;2023-03-01T09:41:49;2.90;;;1.00;;
16813;SDS011;8524;57.650;11.926;2023-03-01T09:44:25;1.17;;;0.80;;
16813;SDS011;8524;57.650;11.926;2023-03-01T09:47:11;1.27;;;0.80;;
16813;SDS011;8524;57.650;11.926;2023-03-01T09:49:42;2.70;;;0.97;;
16813;SDS011;8524;57.650;11.926;2023-03-01T09:52:17;1.20;;;0.80;;
16813;SDS011;8524;57.650;11.926;2023-03-01T09:54:49;1.03;;;1.00;;
16813;SDS011;8524;57.650;11.926;2023-03-01T09:57:24;1.60;;;0.90;;
16813;SDS011;8524;57.650;11.926;2023-03-01T09:59:59;2.53;;;0.80;;
16813;SDS011;8524;57.650;11.926;2023-03-01T10:02:47;2.67;;;0.93;;
16813;SDS011;8524;57.650;11.926;2023-03-01T10:08:24;2.27;;;1.17;;
16813;SDS011;8524;57.650;11.926;2023-03-01T10:11:01;2.13;;;1.10;;
16813;SDS011;8524;57.650;11.926;2023-03-01T10:13:33;5.37;;;1.13;;
16813;SDS011;8524;57.650;11.926;2023-03-01T10:16:10;1.50;;;0.90;;
16813;SDS011;8524;57.650;11.926;2023-03-01T10:18:52;1.95;;;1.00;;
16813;SDS011;8524;57.650;11.926;2023-03-01T10:21:22;2.60;;;0.80;;
16813;SDS011;8524;57.650;11.926;2023-03-01T10:23:49;2.37;;;0.83;;
16813;SDS011;8524;57.650;11.926;2023-03-01T10:26:24;2.07;;;0.90;;
16813;SDS011;8524;57.650;11.926;2023-03-01T10:29:10;1.90;;;0.93;;
16813;SDS011;8524;57.650;11.926;2023-03-01T10:31:40;3.90;;;1.13;;
16813;SDS011;8524;57.650;11.926;2023-03-01T10:34:13;1.70;;;1.00;;
16813;SDS011;8524;57.650;11.926;2023-03-01T10:36:42;4.53;;;1.20;;
16813;SDS011;8524;57.650;11.926;2023-03-01T10:39:12;1.97;;;1.00;;
16813;SDS011;8524;57.650;11.926;2023-03-01T10:41:57;1.30;;;0.80;;
16813;SDS011;8524;57.650;11.926;2023-03-01T10:44:42;2.10;;;0.80;;
16813;SDS011;8524;57.650;11.926;2023-03-01T10:47:15;2.07;;;0.60;;
16813;SDS011;8524;57.650;11.926;2023-03-01T10:49:52;2.60;;;1.00;;
16813;SDS011;8524;57.650;11.926;2023-03-01T10:52:22;2.47;;;0.53;;
16813;SDS011;8524;57.650;11.926;2023-03-01T10:54:53;6.30;;;1.00;;
16813;SDS011;8524;57.650;11.926;2023-03-01T10:57:30;1.20;;;0.63;;
16813;SDS011;8524;57.650;11.926;2023-03-01T11:00:10;10.03;;;1.43;;
16813;SDS011;8524;57.650;11.926;2023-03-01T11:02:49;6.17;;;1.30;;
16813;SDS011;8524;57.650;11.926;2023-03-01T11:05:29;2.97;;;1.07;;
16813;SDS011;8524;57.650;11.926;2023-03-01T11:07:59;2.53;;;1.00;;
16813;SDS011;8524;57.650;11.926;2023-03-01T11:10:28;1.77;;;1.00;;
16813;SDS011;8524;57.650;11.926;2023-03-01T11:13:07;2.43;;;1.00;;
16813;SDS011;8524;57.650;11.926;2023-03-01T11:15:40;4.47;;;1.00;;
16813;SDS011;8524;57.650;11.926;2023-03-01T11:18:20;2.17;;;0.90;;
16813;SDS011;8524;57.650;11.926;2023-03-01T11:21:04;4.53;;;1.07;;
16813;SDS011;8524;57.650;11.926;2023-03-01T11:23:36;4.83;;;1.10;;
16813;SDS011;8524;57.650;11.926;2023-03-01T11:26:12;5.87;;;1.37;;
16813;SDS011;8524;57.650;11.926;2023-03-01T11:28:53;6.37;;;1.37;;
16813;SDS011;8524;57.650;11.926;2023-03-01T11:31:24;2.83;;;1.13;;
16813;SDS011;8524;57.650;11.926;2023-03-01T11:33:54;5.63;;;1.23;;
16813;SDS011;8524;57.650;11.926;2023-03-01T11:36:32;3.40;;;1.37;;
16813;SDS011;8524;57.650;11.926;2023-03-01T11:39:12;10.37;;;1.77;;
16813;SDS011;8524;57.650;11.926;2023-03-01T11:42:00;9.40;;;1.53;;
16813;SDS011;8524;57.650;11.926;2023-03-01T11:44:39;7.93;;;1.30;;
16813;SDS011;8524;57.650;11.926;2023-03-01T11:47:24;4.10;;;1.00;;
16813;SDS011;8524;57.650;11.926;2023-03-01T11:50:19;3.80;;;0.80;;
16813;SDS011;8524;57.650;11.926;2023-03-01T11:53:09;1.07;;;0.97;;
16813;SDS011;8524;57.650;11.926;2023-03-01T11:56:08;4.30;;;0.80;;
16813;SDS011;8524;57.650;11.926;2023-03-01T12:02:12;3.40;;;0.80;;
16813;SDS011;8524;57.650;11.926;2023-03-01T12:08:02;2.37;;;1.17;;
16813;SDS011;8524;57.650;11.926;2023-03-01T12:10:41;5.37;;;1.03;;
16813;SDS011;8524;57.650;11.926;2023-03-01T12:13:38;1.73;;;0.90;;
16813;SDS011;8524;57.650;11.926;2023-03-01T12:16:24;5.37;;;0.97;;
16813;SDS011;8524;57.650;11.926;2023-03-01T12:19:33;6.10;;;1.00;;
16813;SDS011;8524;57.650;11.926;2023-03-01T12:22:29;5.77;;;1.07;;
16813;SDS011;8524;57.650;11.926;2023-03-01T12:31:11;2.20;;;0.87;;
16813;SDS011;8524;57.650;11.926;2023-03-01T12:34:01;2.93;;;0.90;;
16813;SDS011;8524;57.650;11.926;2023-03-01T12:36:43;4.33;;;1.10;;
16813;SDS011;8524;57.650;11.926;2023-03-01T12:39:55;1.03;;;0.80;;
16813;SDS011;8524;57.650;11.926;2023-03-01T12:42:48;3.73;;;1.00;;
16813;SDS011;8524;57.650;11.926;2023-03-01T12:48:25;1.27;;;0.60;;
16813;SDS011;8524;57.650;11.926;2023-03-01T12:51:02;9.30;;;1.17;;
16813;SDS011;8524;57.650;11.926;2023-03-01T12:53:38;3.23;;;1.10;;
16813;SDS011;8524;57.650;11.926;2023-03-01T12:56:12;4.47;;;1.40;;
16813;SDS011;8524;57.650;11.926;2023-03-01T12:58:46;1.47;;;0.70;;
16813;SDS011;8524;57.650;11.926;2023-03-01T13:01:30;2.00;;;0.43;;
16813;SDS011;8524;57.650;11.926;2023-03-01T13:04:27;4.63;;;0.83;;
16813;SDS011;8524;57.650;11.926;2023-03-01T13:07:07;1.20;;;0.50;;
16813;SDS011;8524;57.650;11.926;2023-03-01T13:09:44;1.10;;;0.70;;
16813;SDS011;8524;57.650;11.926;2023-03-01T13:15:30;1.40;;;0.70;;
16813;SDS011;8524;57.650;11.926;2023-03-01T13:18:04;0.90;;;0.67;;
16813;SDS011;8524;57.650;11.926;2023-03-01T13:20:56;1.23;;;0.60;;
16813;SDS011;8524;57.650;11.926;2023-03-01T13:23:26;3.57;;;1.10;;
16813;SDS011;8524;57.650;11.926;2023-03-01T13:28:48;2.70;;;0.80;;
16813;SDS011;8524;57.650;11.926;2023-03-01T13:37:32;1.33;;;0.73;;
16813;SDS011;8524;57.650;11.926;2023-03-01T13:43:30;4.47;;;0.97;;
16813;SDS011;8524;57.650;11.926;2023-03-01T13:45:59;3.67;;;0.90;;
16813;SDS011;8524;57.650;11.926;2023-03-01T13:48:28;1.60;;;0.80;;
16813;SDS011;8524;57.650;11.926;2023-03-01T13:51:02;2.80;;;0.70;;
16813;SDS011;8524;57.650;11.926;2023-03-01T13:53:33;1.20;;;0.60;;
16813;SDS011;8524;57.650;11.926;2023-03-01T13:56:06;7.90;;;1.80;;
16813;SDS011;8524;57.650;11.926;2023-03-01T13:58:43;3.40;;;1.00;;
16813;SDS011;8524;57.650;11.926;2023-03-01T14:01:20;2.50;;;1.30;;
16813;SDS011;8524;57.650;11.926;2023-03-01T14:03:50;5.30;;;1.73;;
16813;SDS011;8524;57.650;11.926;2023-03-01T14:06:19;8.52;;;1.90;;
16813;SDS011;8524;57.650;11.926;2023-03-01T14:08:49;2.23;;;1.00;;
16813;SDS011;8524;57.650;11.926;2023-03-01T14:14:42;3.77;;;1.27;;
16813;SDS011;8524;57.650;11.926;2023-03-01T14:20:12;1.67;;;0.83;;
16813;SDS011;8524;57.650;11.926;2023-03-01T14:22:45;5.37;;;1.00;;
16813;SDS011;8524;57.650;11.926;2023-03-01T14:25:18;5.00;;;0.80;;
16813;SDS011;8524;57.650;11.926;2023-03-01T14:27:51;2.87;;;1.07;;
16813;SDS011;8524;57.650;11.926;2023-03-01T14:30:24;5.70;;;1.23;;
16813;SDS011;8524;57.650;11.926;2023-03-01T14:32:53;2.70;;;0.70;;
16813;SDS011;8524;57.650;11.926;2023-03-01T14:35:22;4.30;;;0.87;;
16813;SDS011;8524;57.650;11.926;2023-03-01T14:37:52;8.33;;;1.47;;
16813;SDS011;8524;57.650;11.926;2023-03-01T14:40:24;1.90;;;0.70;;
16813;SDS011;8524;57.650;11.926;2023-03-01T14:42:53;3.90;;;0.83;;
16813;SDS011;8524;57.650;11.926;2023-03-01T14:45:24;2.43;;;1.10;;
16813;SDS011;8524;57.650;11.926;2023-03-01T14:47:53;3.70;;;0.80;;
16813;SDS011;8524;57.650;11.926;2023-03-01T14:50:23;2.03;;;0.90;;
16813;SDS011;8524;57.650;11.926;2023-03-01T14:52:55;3.07;;;0.80;;
16813;SDS011;8524;57.650;11.926;2023-03-01T14:55:25;3.73;;;1.17;;
16813;SDS011;8524;57.650;11.926;2023-03-01T14:57:56;1.50;;;0.80;;
16813;SDS011;8524;57.650;11.926;2023-03-01T15:00:24;2.03;;;1.10;;
16813;SDS011;8524;57.650;11.926;2023-03-01T15:02:54;4.20;;;0.87;;
16813;SDS011;8524;57.650;11.926;2023-03-01T15:05:24;2.57;;;1.00;;
16813;SDS011;8524;57.650;11.926;2023-03-01T15:07:55;2.03;;;1.00;;
16813;SDS011;8524;57.650;11.926;2023-03-01T15:10:24;3.93;;;1.20;;
16813;SDS011;8524;57.650;11.926;2023-03-01T15:12:52;5.27;;;1.20;;
16813;SDS011;8524;57.650;11.926;2023-03-01T15:15:31;5.10;;;1.60;;
16813;SDS011;8524;57.650;11.926;2023-03-01T15:18:01;2.77;;;1.30;;
16813;SDS011;8524;57.650;11.926;2023-03-01T15:20:30;2.50;;;1.17;;
16813;SDS011;8524;57.650;11.926;2023-03-01T15:23:02;2.93;;;1.03;;
16813;SDS011;8524;57.650;11.926;2023-03-01T15:25:30;3.93;;;1.20;;
16813;SDS011;8524;57.650;11.926;2023-03-01T15:27:59;4.47;;;1.30;;
16813;SDS011;8524;57.650;11.926;2023-03-01T15:30:29;2.03;;;1.10;;
16813;SDS011;8524;57.650;11.926;2023-03-01T15:35:53;5.67;;;1.07;;
16813;SDS011;8524;57.650;11.926;2023-03-01T15:38:27;3.90;;;1.37;;
16813;SDS011;8524;57.650;11.926;2023-03-01T15:40:57;6.53;;;1.90;;
16813;SDS011;8524;57.650;11.926;2023-03-01T15:43:38;4.60;;;1.47;;
16813;SDS011;8524;57.650;11.926;2023-03-01T15:46:15;3.67;;;0.97;;
16813;SDS011;8524;57.650;11.926;2023-03-01T15:48:45;3.13;;;1.27;;
16813;SDS011;8524;57.650;11.926;2023-03-01T15:51:14;3.17;;;1.30;;
16813;SDS011;8524;57.650;11.926;2023-03-01T15:53:44;4.03;;;1.10;;
16813;SDS011;8524;57.650;11.926;2023-03-01T15:56:15;9.10;;;1.70;;
16813;SDS011;8524;57.650;11.926;2023-03-01T15:58:42;4.73;;;1.20;;
16813;SDS011;8524;57.650;11.926;2023-03-01T16:01:10;2.03;;;0.90;;